sensor_id;sensor_type;location;lat;lon;timestamp;temperature;humidity
21282;DHT22;10800;53.096;18.328;2024-01-15T00:05:15;1.80;99.90
21282;DHT22;10800;53.096;18.328;2024-01-15T00:10:32;1.80;99.90
21282;DHT22;10800;53.096;18.328;2024-01-15T00:16:22;1.80;99.90
21282;DHT22;10800;53.096;18.328;2024-01-15T00:21:55;1.80;99.90
21282;DHT22;10800;53.096;18.328;2024-01-15T00:27:46;1.70;99.90
21282;DHT22;10800;53.096;18.328;2024-01-15T00:33:32;1.60;99.90
21282;DHT22;10800;53.096;18.328;2024-01-15T00:39:04;1.70;99.90
21282;DHT22;10800;53.096;18.328;2024-01-15T00:44:31;1.70;99.90
21282;DHT22;10800;53.096;18.328;2024-01-15T00:49:51;1.70;99.90
21282;DHT22;10800;53.096;18.328;2024-01-15T00:55:34;1.70;99.90
21282;DHT22;10800;53.096;18.328;2024-01-15T01:01:17;1.70;99.90
21282;DHT22;10800;53.096;18.328;2024-01-15T01:06:34;1.70;99.90
21282;DHT22;10800;53.096;18.328;2024-01-15T01:12:11;1.80;99.90
21282;DHT22;10800;53.096;18.328;2024-01-15T01:17:38;1.80;99.90
21282;DHT22;10800;53.096;18.328;2024-01-15T01:23:10;1.80;99.90
21282;DHT22;10800;53.096;18.328;2024-01-15T01:28:24;1.80;99.90
21282;DHT22;10800;53.096;18.328;2024-01-15T01:34:17;1.80;99.90
21282;DHT22;10800;53.096;18.328;2024-01-15T01:39:53;1.80;99.90
21282;DHT22;10800;53.096;18.328;2024-01-15T01:45:09;1.80;99.90
21282;DHT22;10800;53.096;18.328;2024-01-15T01:50:22;1.80;99.90
21282;DHT22;10800;53.096;18.328;2024-01-15T01:55:48;1.80;99.90
21282;DHT22;10800;53.096;18.328;2024-01-15T02:01:02;1.90;99.90
21282;DHT22;10800;53.096;18.328;2024-01-15T02:06:30;1.90;99.90
21282;DHT22;10800;53.096;18.328;2024-01-15T02:11:46;1.90;99.90
21282;DHT22;10800;53.096;18.328;2024-01-15T02:17:00;1.90;99.90
21282;DHT22;10800;53.096;18.328;2024-01-15T02:22:20;1.80;99.90
21282;DHT22;10800;53.096;18.328;2024-01-15T02:27:30;1.90;99.90
21282;DHT22;10800;53.096;18.328;2024-01-15T02:32:39;1.90;99.90
21282;DHT22;10800;53.096;18.328;2024-01-15T02:37:51;1.90;99.90
21282;DHT22;10800;53.096;18.328;2024-01-15T02:43:24;1.80;99.90
21282;DHT22;10800;53.096;18.328;2024-01-15T02:48:35;1.80;99.90
21282;DHT22;10800;53.096;18.328;2024-01-15T02:53:49;1.80;99.90
21282;DHT22;10800;53.096;18.328;2024-01-15T02:59:15;1.90;99.90
21282;DHT22;10800;53.096;18.328;2024-01-15T03:04:37;1.80;99.90
21282;DHT22;10800;53.096;18.328;2024-01-15T03:09:55;1.80;99.90
21282;DHT22;10800;53.096;18.328;2024-01-15T03:15:27;1.80;99.90
21282;DHT22;10800;53.096;18.328;2024-01-15T03:20:39;1.80;99.90
21282;DHT22;10800;53.096;18.328;2024-01-15T03:25:54;1.70;99.90
21282;DHT22;10800;53.096;18.328;2024-01-15T03:31:15;1.70;99.90
21282;DHT22;10800;53.096;18.328;2024-01-15T03:36:29;1.70;99.90
21282;DHT22;10800;53.096;18.328;2024-01-15T03:41:40;1.70;99.90
21282;DHT22;10800;53.096;18.328;2024-01-15T03:46:49;1.50;99.90
21282;DHT22;10800;53.096;18.328;2024-01-15T03:52:15;1.40;99.90
21282;DHT22;10800;53.096;18.328;2024-01-15T03:57:24;1.40;99.90
21282;DHT22;10800;53.096;18.328;2024-01-15T04:02:43;1.40;99.90
21282;DHT22;10800;53.096;18.328;2024-01-15T04:07:57;1.30;99.90
21282;DHT22;10800;53.096;18.328;2024-01-15T04:13:16;1.30;99.90
21282;DHT22;10800;53.096;18.328;2024-01-15T04:18:24;1.20;99.90
21282;DHT22;10800;53.096;18.328;2024-01-15T04:23:39;1.20;99.90
21282;DHT22;10800;53.096;18.328;2024-01-15T04:28:48;1.10;99.90
21282;DHT22;10800;53.096;18.328;2024-01-15T04:33:56;1.10;99.90
21282;DHT22;10800;53.096;18.328;2024-01-15T04:39:10;1.20;99.90
21282;DHT22;10800;53.096;18.328;2024-01-15T04:44:26;1.20;99.90
21282;DHT22;10800;53.096;18.328;2024-01-15T04:49:39;1.10;99.90
21282;DHT22;10800;53.096;18.328;2024-01-15T04:55:11;1.10;99.90
21282;DHT22;10800;53.096;18.328;2024-01-15T05:00:27;1.00;99.90
21282;DHT22;10800;53.096;18.328;2024-01-15T05:05:41;1.10;99.90
21282;DHT22;10800;53.096;18.328;2024-01-15T05:10:51;1.10;99.90
21282;DHT22;10800;53.096;18.328;2024-01-15T05:15:57;1.10;99.90
21282;DHT22;10800;53.096;18.328;2024-01-15T05:21:03;1.10;99.90
21282;DHT22;10800;53.096;18.328;2024-01-15T05:26:11;1.10;99.90
21282;DHT22;10800;53.096;18.328;2024-01-15T05:31:24;1.10;99.90
21282;DHT22;10800;53.096;18.328;2024-01-15T05:36:30;1.10;99.90
21282;DHT22;10800;53.096;18.328;2024-01-15T05:41:40;1.00;99.90
21282;DHT22;10800;53.096;18.328;2024-01-15T05:47:07;1.00;99.90
21282;DHT22;10800;53.096;18.328;2024-01-15T05:52:15;1.00;99.90
21282;DHT22;10800;53.096;18.328;2024-01-15T05:57:25;1.00;99.90
21282;DHT22;10800;53.096;18.328;2024-01-15T06:02:34;1.00;99.90
21282;DHT22;10800;53.096;18.328;2024-01-15T06:07:45;1.10;99.90
21282;DHT22;10800;53.096;18.328;2024-01-15T06:12:59;1.00;99.90
21282;DHT22;10800;53.096;18.328;2024-01-15T06:18:09;1.00;99.90
21282;DHT22;10800;53.096;18.328;2024-01-15T06:23:19;1.00;99.90
21282;DHT22;10800;53.096;18.328;2024-01-15T06:28:35;1.00;99.90
21282;DHT22;10800;53.096;18.328;2024-01-15T06:33:50;1.00;99.90
21282;DHT22;10800;53.096;18.328;2024-01-15T06:39:00;1.00;99.90
21282;DHT22;10800;53.096;18.328;2024-01-15T06:44:19;1.10;99.90
21282;DHT22;10800;53.096;18.328;2024-01-15T06:49:39;1.00;99.90
21282;DHT22;10800;53.096;18.328;2024-01-15T06:54:54;1.10;99.90
21282;DHT22;10800;53.096;18.328;2024-01-15T07:00:03;1.10;99.90
21282;DHT22;10800;53.096;18.328;2024-01-15T07:05:14;1.10;99.90
21282;DHT22;10800;53.096;18.328;2024-01-15T07:10:32;1.10;99.90
21282;DHT22;10800;53.096;18.328;2024-01-15T07:16:16;1.10;99.90
21282;DHT22;10800;53.096;18.328;2024-01-15T07:22:02;1.10;99.90
21282;DHT22;10800;53.096;18.328;2024-01-15T07:27:12;1.10;99.90
21282;DHT22;10800;53.096;18.328;2024-01-15T07:32:18;1.20;99.90
21282;DHT22;10800;53.096;18.328;2024-01-15T07:37:26;1.20;99.90
21282;DHT22;10800;53.096;18.328;2024-01-15T07:42:44;1.20;99.90
21282;DHT22;10800;53.096;18.328;2024-01-15T07:47:57;1.10;99.90
21282;DHT22;10800;53.096;18.328;2024-01-15T07:53:09;1.10;99.90
21282;DHT22;10800;53.096;18.328;2024-01-15T07:58:20;1.10;99.90
21282;DHT22;10800;53.096;18.328;2024-01-15T08:03:25;1.20;99.90
21282;DHT22;10800;53.096;18.328;2024-01-15T08:08:34;1.20;99.90
21282;DHT22;10800;53.096;18.328;2024-01-15T08:13:48;1.20;99.90
21282;DHT22;10800;53.096;18.328;2024-01-15T08:19:01;1.40;99.90
21282;DHT22;10800;53.096;18.328;2024-01-15T08:24:07;1.40;99.90
21282;DHT22;10800;53.096;18.328;2024-01-15T08:29:21;1.70;99.90
21282;DHT22;10800;53.096;18.328;2024-01-15T08:34:30;1.60;99.90
21282;DHT22;10800;53.096;18.328;2024-01-15T08:39:59;1.50;99.90
21282;DHT22;10800;53.096;18.328;2024-01-15T08:45:10;1.40;99.90
21282;DHT22;10800;53.096;18.328;2024-01-15T08:50:33;1.50;99.90
21282;DHT22;10800;53.096;18.328;2024-01-15T08:55:42;1.60;99.90
21282;DHT22;10800;53.096;18.328;2024-01-15T09:01:10;1.90;99.90
21282;DHT22;10800;53.096;18.328;2024-01-15T09:06:30;1.90;99.90
21282;DHT22;10800;53.096;18.328;2024-01-15T09:12:03;1.90;99.90
21282;DHT22;10800;53.096;18.328;2024-01-15T09:17:11;1.80;99.90
21282;DHT22;10800;53.096;18.328;2024-01-15T09:22:17;1.70;99.90
21282;DHT22;10800;53.096;18.328;2024-01-15T09:27:25;1.70;99.90
21282;DHT22;10800;53.096;18.328;2024-01-15T09:32:47;2.00;99.90
21282;DHT22;10800;53.096;18.328;2024-01-15T09:37:55;1.90;99.90
21282;DHT22;10800;53.096;18.328;2024-01-15T09:43:03;1.80;99.90
21282;DHT22;10800;53.096;18.328;2024-01-15T09:48:21;1.90;99.90
21282;DHT22;10800;53.096;18.328;2024-01-15T09:53:41;1.80;99.90
21282;DHT22;10800;53.096;18.328;2024-01-15T09:58:54;1.90;99.90
21282;DHT22;10800;53.096;18.328;2024-01-15T10:04:07;1.90;99.90
21282;DHT22;10800;53.096;18.328;2024-01-15T10:09:14;1.80;99.90
21282;DHT22;10800;53.096;18.328;2024-01-15T10:14:33;1.70;99.90
21282;DHT22;10800;53.096;18.328;2024-01-15T10:19:50;1.70;99.90
21282;DHT22;10800;53.096;18.328;2024-01-15T10:24:58;1.70;99.90
21282;DHT22;10800;53.096;18.328;2024-01-15T10:30:20;1.70;99.90
21282;DHT22;10800;53.096;18.328;2024-01-15T10:36:07;1.90;99.90
21282;DHT22;10800;53.096;18.328;2024-01-15T10:41:21;2.40;99.90
21282;DHT22;10800;53.096;18.328;2024-01-15T10:46:35;2.60;99.90
21282;DHT22;10800;53.096;18.328;2024-01-15T10:51:45;2.40;99.90
21282;DHT22;10800;53.096;18.328;2024-01-15T10:56:53;2.40;99.90
21282;DHT22;10800;53.096;18.328;2024-01-15T11:02:28;2.40;99.90
21282;DHT22;10800;53.096;18.328;2024-01-15T11:07:36;2.60;99.90
21282;DHT22;10800;53.096;18.328;2024-01-15T11:12:47;2.70;99.90
21282;DHT22;10800;53.096;18.328;2024-01-15T11:17:59;2.50;99.90
21282;DHT22;10800;53.096;18.328;2024-01-15T11:23:41;2.50;99.90
21282;DHT22;10800;53.096;18.328;2024-01-15T11:28:48;2.30;99.90
21282;DHT22;10800;53.096;18.328;2024-01-15T11:34:03;2.20;99.90
21282;DHT22;10800;53.096;18.328;2024-01-15T11:44:39;2.50;99.90
21282;DHT22;10800;53.096;18.328;2024-01-15T11:55:27;2.50;99.90
21282;DHT22;10800;53.096;18.328;2024-01-15T12:06:07;3.00;99.90
21282;DHT22;10800;53.096;18.328;2024-01-15T12:11:28;3.00;99.90
21282;DHT22;10800;53.096;18.328;2024-01-15T12:16:44;2.80;99.90
21282;DHT22;10800;53.096;18.328;2024-01-15T12:21:55;2.90;99.90
21282;DHT22;10800;53.096;18.328;2024-01-15T12:27:07;2.90;99.90
21282;DHT22;10800;53.096;18.328;2024-01-15T12:32:19;3.20;99.90
21282;DHT22;10800;53.096;18.328;2024-01-15T12:37:29;3.20;99.90
21282;DHT22;10800;53.096;18.328;2024-01-15T12:42:40;3.20;99.90
21282;DHT22;10800;53.096;18.328;2024-01-15T12:47:47;3.30;99.90
21282;DHT22;10800;53.096;18.328;2024-01-15T12:52:56;3.20;99.90
21282;DHT22;10800;53.096;18.328;2024-01-15T12:58:23;3.20;99.90
21282;DHT22;10800;53.096;18.328;2024-01-15T13:03:36;3.10;99.90
21282;DHT22;10800;53.096;18.328;2024-01-15T13:08:45;3.20;99.90
21282;DHT22;10800;53.096;18.328;2024-01-15T13:13:57;2.90;99.90
21282;DHT22;10800;53.096;18.328;2024-01-15T13:19:05;2.70;99.90
21282;DHT22;10800;53.096;18.328;2024-01-15T13:24:17;2.60;99.90
21282;DHT22;10800;53.096;18.328;2024-01-15T13:29:27;2.60;99.90
21282;DHT22;10800;53.096;18.328;2024-01-15T13:34:35;2.50;99.90
21282;DHT22;10800;53.096;18.328;2024-01-15T13:39:46;2.50;99.90
21282;DHT22;10800;53.096;18.328;2024-01-15T13:45:30;2.20;99.90
21282;DHT22;10800;53.096;18.328;2024-01-15T13:50:52;2.10;99.90
21282;DHT22;10800;53.096;18.328;2024-01-15T13:56:06;1.90;99.90
21282;DHT22;10800;53.096;18.328;2024-01-15T14:01:19;1.70;99.90
21282;DHT22;10800;53.096;18.328;2024-01-15T14:06:28;1.70;99.90
21282;DHT22;10800;53.096;18.328;2024-01-15T14:11:38;1.60;99.90
21282;DHT22;10800;53.096;18.328;2024-01-15T14:16:46;1.70;99.90
21282;DHT22;10800;53.096;18.328;2024-01-15T14:22:04;1.50;99.90
21282;DHT22;10800;53.096;18.328;2024-01-15T14:27:09;1.40;99.90
21282;DHT22;10800;53.096;18.328;2024-01-15T14:32:15;1.40;99.90
21282;DHT22;10800;53.096;18.328;2024-01-15T14:37:22;1.40;99.90
21282;DHT22;10800;53.096;18.328;2024-01-15T14:42:28;1.30;99.90
21282;DHT22;10800;53.096;18.328;2024-01-15T14:47:39;1.30;99.90
21282;DHT22;10800;53.096;18.328;2024-01-15T14:52:54;1.30;99.90
21282;DHT22;10800;53.096;18.328;2024-01-15T14:58:01;1.20;99.90
21282;DHT22;10800;53.096;18.328;2024-01-15T15:03:09;1.10;99.90
21282;DHT22;10800;53.096;18.328;2024-01-15T15:08:18;1.00;99.90
21282;DHT22;10800;53.096;18.328;2024-01-15T15:13:25;0.90;99.90
21282;DHT22;10800;53.096;18.328;2024-01-15T15:18:32;0.80;99.90
21282;DHT22;10800;53.096;18.328;2024-01-15T15:23:38;0.80;99.90
21282;DHT22;10800;53.096;18.328;2024-01-15T15:28:44;0.80;99.90
21282;DHT22;10800;53.096;18.328;2024-01-15T15:33:49;0.80;99.90
21282;DHT22;10800;53.096;18.328;2024-01-15T15:38:55;0.80;99.90
21282;DHT22;10800;53.096;18.328;2024-01-15T15:44:04;0.80;99.90
21282;DHT22;10800;53.096;18.328;2024-01-15T15:49:10;0.80;99.90
21282;DHT22;10800;53.096;18.328;2024-01-15T15:54:16;0.70;99.90
21282;DHT22;10800;53.096;18.328;2024-01-15T15:59:22;0.70;99.90
21282;DHT22;10800;53.096;18.328;2024-01-15T16:04:28;0.60;99.90
21282;DHT22;10800;53.096;18.328;2024-01-15T16:09:40;0.50;99.90
21282;DHT22;10800;53.096;18.328;2024-01-15T16:14:42;0.50;99.90
21282;DHT22;10800;53.096;18.328;2024-01-15T16:19:49;0.50;99.90
21282;DHT22;10800;53.096;18.328;2024-01-15T16:24:57;0.40;99.90
21282;DHT22;10800;53.096;18.328;2024-01-15T16:30:04;0.40;99.90
21282;DHT22;10800;53.096;18.328;2024-01-15T16:35:12;0.20;99.90
21282;DHT22;10800;53.096;18.328;2024-01-15T16:40:19;0.20;99.90
21282;DHT22;10800;53.096;18.328;2024-01-15T16:45:24;0.20;99.90
21282;DHT22;10800;53.096;18.328;2024-01-15T16:50:30;0.20;99.90
21282;DHT22;10800;53.096;18.328;2024-01-15T16:55:36;0.20;99.90
21282;DHT22;10800;53.096;18.328;2024-01-15T17:00:42;0.30;99.90
21282;DHT22;10800;53.096;18.328;2024-01-15T17:05:47;0.30;99.90
21282;DHT22;10800;53.096;18.328;2024-01-15T17:10:53;0.20;99.90
21282;DHT22;10800;53.096;18.328;2024-01-15T17:15:59;0.10;99.90
21282;DHT22;10800;53.096;18.328;2024-01-15T17:21:05;0.10;99.90
21282;DHT22;10800;53.096;18.328;2024-01-15T17:26:11;0.00;99.90
21282;DHT22;10800;53.096;18.328;2024-01-15T17:31:19;-0.10;99.90
21282;DHT22;10800;53.096;18.328;2024-01-15T17:36:24;0.10;99.90
21282;DHT22;10800;53.096;18.328;2024-01-15T17:41:30;0.00;99.90
21282;DHT22;10800;53.096;18.328;2024-01-15T17:46:38;0.10;99.90
21282;DHT22;10800;53.096;18.328;2024-01-15T17:51:47;0.10;99.90
21282;DHT22;10800;53.096;18.328;2024-01-15T17:56:53;0.00;99.90
21282;DHT22;10800;53.096;18.328;2024-01-15T18:01:59;-0.10;99.90
21282;DHT22;10800;53.096;18.328;2024-01-15T18:07:04;-0.10;99.90
21282;DHT22;10800;53.096;18.328;2024-01-15T18:12:10;0.00;99.90
21282;DHT22;10800;53.096;18.328;2024-01-15T18:17:16;0.10;99.90
21282;DHT22;10800;53.096;18.328;2024-01-15T18:22:22;0.10;99.90
21282;DHT22;10800;53.096;18.328;2024-01-15T18:27:27;0.00;99.90
21282;DHT22;10800;53.096;18.328;2024-01-15T18:32:33;0.00;99.90
21282;DHT22;10800;53.096;18.328;2024-01-15T18:37:38;0.00;99.90
21282;DHT22;10800;53.096;18.328;2024-01-15T18:42:44;0.00;99.90
21282;DHT22;10800;53.096;18.328;2024-01-15T18:47:53;0.00;99.90
21282;DHT22;10800;53.096;18.328;2024-01-15T18:53:18;0.00;99.90
21282;DHT22;10800;53.096;18.328;2024-01-15T18:58:29;-0.10;99.90
21282;DHT22;10800;53.096;18.328;2024-01-15T19:03:38;-0.20;99.90
21282;DHT22;10800;53.096;18.328;2024-01-15T19:08:44;-0.30;99.90
21282;DHT22;10800;53.096;18.328;2024-01-15T19:14:00;-0.30;99.90
21282;DHT22;10800;53.096;18.328;2024-01-15T19:19:11;-0.40;99.90
21282;DHT22;10800;53.096;18.328;2024-01-15T19:24:18;-0.40;99.90
21282;DHT22;10800;53.096;18.328;2024-01-15T19:29:28;-0.40;99.90
21282;DHT22;10800;53.096;18.328;2024-01-15T19:34:53;-0.40;99.90
21282;DHT22;10800;53.096;18.328;2024-01-15T19:39:59;-0.40;99.90
21282;DHT22;10800;53.096;18.328;2024-01-15T19:45:05;-0.40;99.90
21282;DHT22;10800;53.096;18.328;2024-01-15T19:50:12;-0.50;99.90
21282;DHT22;10800;53.096;18.328;2024-01-15T19:55:18;-0.50;99.90
21282;DHT22;10800;53.096;18.328;2024-01-15T20:00:24;-0.50;99.90
21282;DHT22;10800;53.096;18.328;2024-01-15T20:05:30;-0.50;99.90
21282;DHT22;10800;53.096;18.328;2024-01-15T20:10:36;-0.50;99.90
21282;DHT22;10800;53.096;18.328;2024-01-15T20:15:45;-0.50;99.90
21282;DHT22;10800;53.096;18.328;2024-01-15T20:20:51;-0.40;99.90
21282;DHT22;10800;53.096;18.328;2024-01-15T20:26:00;-0.50;99.90
21282;DHT22;10800;53.096;18.328;2024-01-15T20:31:06;-0.50;99.90
21282;DHT22;10800;53.096;18.328;2024-01-15T20:36:14;-0.50;99.90
21282;DHT22;10800;53.096;18.328;2024-01-15T20:41:20;-0.50;99.90
21282;DHT22;10800;53.096;18.328;2024-01-15T20:46:26;-0.60;99.90
21282;DHT22;10800;53.096;18.328;2024-01-15T20:51:43;-0.70;99.90
21282;DHT22;10800;53.096;18.328;2024-01-15T20:56:49;-0.70;99.90
21282;DHT22;10800;53.096;18.328;2024-01-15T21:02:00;-0.80;99.90
21282;DHT22;10800;53.096;18.328;2024-01-15T21:07:07;-0.90;99.90
21282;DHT22;10800;53.096;18.328;2024-01-15T21:12:13;-0.90;99.90
21282;DHT22;10800;53.096;18.328;2024-01-15T21:17:19;-0.80;99.90
21282;DHT22;10800;53.096;18.328;2024-01-15T21:22:25;-0.80;99.90
21282;DHT22;10800;53.096;18.328;2024-01-15T21:27:33;-0.80;99.90
21282;DHT22;10800;53.096;18.328;2024-01-15T21:32:38;-0.70;99.90
21282;DHT22;10800;53.096;18.328;2024-01-15T21:37:44;-0.70;99.90
21282;DHT22;10800;53.096;18.328;2024-01-15T21:42:50;-0.70;99.90
21282;DHT22;10800;53.096;18.328;2024-01-15T21:47:55;-0.70;99.90
21282;DHT22;10800;53.096;18.328;2024-01-15T21:53:01;-0.70;99.90
21282;DHT22;10800;53.096;18.328;2024-01-15T21:58:07;-0.80;99.90
21282;DHT22;10800;53.096;18.328;2024-01-15T22:03:13;-0.80;99.90
21282;DHT22;10800;53.096;18.328;2024-01-15T22:08:20;-0.80;99.90
21282;DHT22;10800;53.096;18.328;2024-01-15T22:13:26;-0.80;99.90
21282;DHT22;10800;53.096;18.328;2024-01-15T22:18:32;-0.80;99.90
21282;DHT22;10800;53.096;18.328;2024-01-15T22:23:40;-0.80;99.90
21282;DHT22;10800;53.096;18.328;2024-01-15T22:28:47;-0.80;99.90
21282;DHT22;10800;53.096;18.328;2024-01-15T22:33:53;-0.80;99.90
21282;DHT22;10800;53.096;18.328;2024-01-15T22:38:59;-0.90;99.90
21282;DHT22;10800;53.096;18.328;2024-01-15T22:44:04;-0.90;99.90
21282;DHT22;10800;53.096;18.328;2024-01-15T22:49:12;-0.80;99.90
21282;DHT22;10800;53.096;18.328;2024-01-15T22:54:17;-0.80;99.90
21282;DHT22;10800;53.096;18.328;2024-01-15T22:59:23;-0.80;99.90
21282;DHT22;10800;53.096;18.328;2024-01-15T23:04:28;-0.90;99.90
21282;DHT22;10800;53.096;18.328;2024-01-15T23:09:34;-0.90;99.90
21282;DHT22;10800;53.096;18.328;2024-01-15T23:14:39;-0.90;98.80
21282;DHT22;10800;53.096;18.328;2024-01-15T23:19:45;-1.00;98.10
21282;DHT22;10800;53.096;18.328;2024-01-15T23:24:51;-1.10;97.00
21282;DHT22;10800;53.096;18.328;2024-01-15T23:29:56;-1.20;97.10
21282;DHT22;10800;53.096;18.328;2024-01-15T23:35:02;-1.30;96.90
21282;DHT22;10800;53.096;18.328;2024-01-15T23:40:08;-1.40;96.40
21282;DHT22;10800;53.096;18.328;2024-01-15T23:45:14;-1.50;97.10
21282;DHT22;10800;53.096;18.328;2024-01-15T23:50:26;-1.60;97.00
21282;DHT22;10800;53.096;18.328;2024-01-15T23:55:32;-1.60;96.80
